Terminal Aerodrome Forecast
Issued by NWS Boston, MA

Home | Current Version | Previous Version | Text Only | Print | Product List | Glossary On
Versions: 1 2 3 4 5 6 7 8 9 10 11 12 13 14 15 16 17 18 19 20 21 22 23 24 25 26 27 28 29 30 31 32 33 34 35 36 37 38 39 40 41 42 43 44 45
000
FTUS41 KBOX 011125
TAFPVD
TAF
KPVD 011125Z 0112/0212 15008KT 3SM TSRA BR OVC020CB
      TEMPO 0112/0113 1SM +TSRA OVC008CB
     FM011300 16006KT 4SM -SHRA BR OVC025
     FM011400 17006KT P6SM VCSH OVC025
     FM011600 18008KT P6SM VCSH OVC050
     FM012300 21008KT P6SM SCT250
     FM020600 26004KT P6SM BKN250=

USA.gov is the U.S. government's official web portal to all federal, state and local government web resources and services.